Time;durP1;ratioP1;P1;durP2;ratioP2;P2;SDS_P1;SDS_P2;PMS_P1;PMS_P2;Temp;Humidity;BMP_temperature;BMP_pressure;BME280_temperature;BME280_humidity;BME280_pressure;Samples;Min_cycle;Max_cycle;Signal;HPM_P1;HPM_P2
2022/09/14 00:01:43;;;;;;;0.50;0.30;;;;;;;17.08;77.24;95290.88;5114011;28;20446;-57
2022/09/14 00:04:13;;;;;;;0.40;0.20;;;;;;;16.92;76.52;95300.44;5113760;28;20435;-57
2022/09/14 00:06:43;;;;;;;0.60;0.30;;;;;;;16.28;79.08;95303.69;5114154;28;20431;-57
2022/09/14 00:09:16;;;;;;;0.50;0.30;;;;;;;16.28;86.67;95304.47;5113971;28;20427;-57
2022/09/14 00:11:45;;;;;;;0.40;0.20;;;;;;;16.71;84.65;95307.44;5113858;28;20428;-57
2022/09/14 00:14:13;;;;;;;0.60;0.47;;;;;;;16.51;82.90;95262.44;5113610;28;20431;-57
2022/09/14 00:16:42;;;;;;;0.40;0.20;;;;;;;16.93;82.46;95310.03;5113697;28;20481;-57
2022/09/14 00:19:17;;;;;;;0.60;0.50;;;;;;;16.47;85.29;95306.94;5113547;28;20925;-57
2022/09/14 00:21:51;;;;;;;0.40;0.30;;;;;;;16.21;83.64;95304.13;5113663;28;20981;-57
2022/09/14 00:24:20;;;;;;;0.40;0.20;;;;;;;16.34;86.23;95310.50;5113349;28;20925;-57
2022/09/14 00:26:48;;;;;;;0.40;0.30;;;;;;;15.91;84.43;95312.06;5113316;28;20424;-57
2022/09/14 00:29:17;;;;;;;0.40;0.20;;;;;;;15.54;89.84;95316.59;5113590;28;20415;-57
2022/09/14 00:31:45;;;;;;;0.60;0.40;;;;;;;16.08;87.71;95312.19;5113370;28;20439;-57
2022/09/14 00:34:16;;;;;;;0.50;0.40;;;;;;;16.40;89.58;95315.41;5113224;28;21001;-57
2022/09/14 00:36:48;;;;;;;1.33;0.30;;;;;;;16.71;88.13;95315.47;5113533;28;20877;-57
2022/09/14 00:39:22;;;;;;;1.67;0.50;;;;;;;16.60;82.48;95311.44;5113093;28;20905;-57
2022/09/14 00:41:52;;;;;;;0.40;0.20;;;;;;;16.60;84.29;95311.44;5113248;28;20927;-57
2022/09/14 00:45:09;;;;;;;0.40;0.20;;;;;;;16.64;86.74;95314.31;5113058;28;20446;-57
2022/09/14 00:47:37;;;;;;;0.40;0.30;;;;;;;16.76;83.27;95309.19;5029601;28;20447;-56
2022/09/14 00:50:06;;;;;;;0.50;0.30;;;;;;;16.07;82.73;95308.72;5094306;28;20427;-57
2022/09/14 00:52:40;;;;;;;0.40;0.20;;;;;;;16.57;86.90;95305.94;5112993;28;20420;-56
2022/09/14 00:55:11;;;;;;;0.50;0.30;;;;;;;16.48;82.73;95309.31;5112814;28;20435;-57
2022/09/14 00:57:43;;;;;;;0.40;0.20;;;;;;;16.64;82.81;95317.78;5112751;27;20491;-57
2022/09/14 01:00:14;;;;;;;0.40;0.20;;;;;;;16.41;80.54;95310.84;5112835;28;20435;-57
2022/09/14 01:02:43;;;;;;;0.40;0.30;;;;;;;16.26;84.71;95322.72;5112833;28;20434;-57
2022/09/14 01:05:13;;;;;;;0.40;0.20;;;;;;;16.47;83.14;95323.78;5113001;28;20431;-57
2022/09/14 01:08:10;;;;;;;0.60;0.60;;;;;;;16.37;85.46;95321.34;5112621;28;20415;-56
2022/09/14 01:10:58;;;;;;;0.40;0.20;;;;;;;16.61;81.62;95315.72;5112649;28;20443;-57
2022/09/14 01:13:35;;;;;;;0.60;0.37;;;;;;;16.14;83.35;95321.69;5112544;28;20446;-57
2022/09/14 01:16:13;;;;;;;0.40;0.30;;;;;;;15.69;87.79;95323.50;5112658;28;20423;-57
2022/09/14 01:18:46;;;;;;;0.40;0.30;;;;;;;15.01;94.73;95329.66;5112261;28;20828;-57
2022/09/14 01:21:19;;;;;;;0.40;0.30;;;;;;;14.64;94.75;95249.81;5112507;28;20470;-57
2022/09/14 01:23:56;;;;;;;0.40;0.30;;;;;;;15.30;92.52;95329.38;5112693;28;20948;-57
2022/09/14 01:27:01;;;;;;;0.40;0.30;;;;;;;15.77;90.27;95336.16;5112475;28;20423;-57
2022/09/14 01:29:33;;;;;;;0.50;0.50;;;;;;;15.87;90.31;95326.03;5082106;28;20438;-57
2022/09/14 01:32:07;;;;;;;0.47;0.30;;;;;;;15.24;92.42;95318.00;5112350;28;20438;-57
2022/09/14 01:34:40;;;;;;;0.40;0.20;;;;;;;15.16;95.82;95332.03;5112514;28;20910;-57
2022/09/14 01:37:15;;;;;;;0.40;0.20;;;;;;;15.52;93.83;95329.47;5112531;28;20470;-57
2022/09/14 01:39:48;;;;;;;0.50;0.30;;;;;;;15.56;97.75;95335.78;5112511;28;20435;-57
2022/09/14 01:42:21;;;;;;;0.50;0.30;;;;;;;15.73;92.67;95329.84;5112565;28;20431;-56
2022/09/14 01:44:54;;;;;;;0.40;0.20;;;;;;;15.87;91.52;95328.69;5112093;28;20932;-57
2022/09/14 01:47:27;;;;;;;0.40;0.30;;;;;;;15.92;91.17;95333.13;5112223;28;20419;-57
2022/09/14 01:50:00;;;;;;;0.40;0.20;;;;;;;15.67;97.22;95345.19;5112090;28;20434;-56
2022/09/14 01:52:34;;;;;;;0.50;0.37;;;;;;;15.65;90.72;95334.00;5112414;28;20802;-56
2022/09/14 01:55:08;;;;;;;0.50;0.50;;;;;;;15.79;91.41;95331.28;5112034;28;20431;-56
2022/09/14 01:57:41;;;;;;;0.40;0.30;;;;;;;15.86;87.72;95337.03;5111784;28;20482;-56
2022/09/14 02:00:15;;;;;;;0.40;0.20;;;;;;;16.03;90.51;95341.72;5116048;28;20423;-56
2022/09/14 02:02:49;;;;;;;0.50;0.40;;;;;;;15.98;87.41;95342.63;5116537;28;20430;-56
2022/09/14 02:05:23;;;;;;;1.00;0.90;;;;;;;15.38;89.85;95351.91;5116418;28;20434;-56
2022/09/14 02:07:51;;;;;;;0.40;0.30;;;;;;;14.81;96.54;95358.59;5116181;28;20965;-56
2022/09/14 02:10:20;;;;;;;0.60;0.30;;;;;;;14.36;100.00;95354.84;5116313;28;20480;-56
2022/09/14 02:12:48;;;;;;;0.40;0.30;;;;;;;14.87;100.00;95354.78;5116410;28;20430;-56
2022/09/14 02:15:18;;;;;;;1.07;1.07;;;;;;;15.18;95.28;95353.88;5116370;28;20435;-56
2022/09/14 02:17:47;;;;;;;0.40;0.30;;;;;;;15.56;96.05;95361.75;5116228;28;20816;-57
2022/09/14 02:20:22;;;;;;;0.50;0.30;;;;;;;15.71;93.53;95348.06;5116082;28;20427;-56
2022/09/14 02:22:52;;;;;;;0.50;0.40;;;;;;;15.76;91.97;95355.97;5116237;28;20449;-56
2022/09/14 02:25:20;;;;;;;0.50;0.30;;;;;;;15.73;92.11;95361.91;5115817;28;20427;-56
2022/09/14 02:27:49;;;;;;;0.60;0.40;;;;;;;15.62;90.93;95363.19;5115845;28;20427;-56
2022/09/14 02:30:19;;;;;;;0.57;0.27;;;;;;;15.20;96.59;95361.63;5115654;28;20419;-56
2022/09/14 02:32:59;;;;;;;0.40;0.20;;;;;;;15.49;94.83;95367.47;5115603;28;20427;-56
2022/09/14 02:35:35;;;;;;;0.40;0.20;;;;;;;14.82;93.21;95278.28;5115685;28;20434;-56
2022/09/14 02:38:11;;;;;;;0.40;0.30;;;;;;;15.01;96.34;95374.25;5115512;28;20462;-56
2022/09/14 02:40:44;;;;;;;0.40;0.30;;;;;;;14.71;100.00;95377.47;5115891;28;20449;-56
2022/09/14 02:43:25;;;;;;;0.40;0.20;;;;;;;14.99;99.23;95379.91;5115445;28;20415;-56
2022/09/14 02:46:02;;;;;;;0.40;0.30;;;;;;;15.15;98.62;95375.84;5115614;28;20912;-56
2022/09/14 02:48:40;;;;;;;0.40;0.27;;;;;;;15.18;97.67;95375.25;5115344;28;20431;-56
2022/09/14 02:51:17;;;;;;;0.40;0.20;;;;;;;15.41;99.29;95365.44;5115610;28;20427;-56
2022/09/14 02:53:51;;;;;;;0.40;0.30;;;;;;;15.51;97.34;95364.50;5115524;28;20427;-55
2022/09/14 02:56:20;;;;;;;0.40;0.20;;;;;;;15.41;97.72;95359.31;5115342;28;20434;-56
2022/09/14 02:58:49;;;;;;;0.40;0.20;;;;;;;15.43;95.78;95362.50;5115115;28;20470;-56
2022/09/14 03:01:22;;;;;;;0.40;0.20;;;;;;;15.27;95.55;95370.81;5115215;28;20419;-56
2022/09/14 03:03:51;;;;;;;0.40;0.20;;;;;;;15.04;100.00;95379.81;5115065;28;20927;-57
2022/09/14 03:06:20;;;;;;;0.40;0.20;;;;;;;14.95;98.79;95378.88;5115123;28;20424;-56
2022/09/14 03:08:49;;;;;;;0.80;0.57;;;;;;;14.79;99.27;95380.25;5115186;28;20800;-56
2022/09/14 03:11:17;;;;;;;0.40;0.30;;;;;;;15.19;99.36;95387.53;5115108;28;20419;-57
2022/09/14 03:13:46;;;;;;;0.40;0.30;;;;;;;15.28;99.84;95393.75;5114852;28;20435;-57
2022/09/14 03:16:17;;;;;;;0.40;0.30;;;;;;;14.67;100.00;95321.25;5115252;28;20909;-57
2022/09/14 03:18:47;;;;;;;0.40;0.30;;;;;;;15.31;98.14;95389.69;5114715;28;20474;-57
2022/09/14 03:21:16;;;;;;;0.40;0.30;;;;;;;15.08;95.55;95377.31;5115157;28;20431;-57
2022/09/14 03:23:47;;;;;;;0.40;0.20;;;;;;;15.10;98.04;95385.84;5114743;28;20436;-57
2022/09/14 03:26:17;;;;;;;0.50;0.30;;;;;;;14.71;100.00;95388.13;5114779;28;20432;-57
2022/09/14 03:28:49;;;;;;;0.50;0.30;;;;;;;15.08;100.00;95386.13;5114942;28;20814;-57
2022/09/14 03:31:18;;;;;;;0.40;0.30;;;;;;;14.99;100.00;95387.91;5114650;28;20431;-57
2022/09/14 03:33:52;;;;;;;0.40;0.30;;;;;;;15.22;99.86;95383.47;5114467;28;20438;-55
2022/09/14 03:36:21;;;;;;;0.40;0.30;;;;;;;15.28;96.55;95390.28;5114535;28;20429;-56
2022/09/14 03:38:51;;;;;;;0.40;0.20;;;;;;;15.27;97.64;95389.50;5114251;28;20838;-56
2022/09/14 03:41:21;;;;;;;0.57;0.57;;;;;;;15.17;100.00;95404.94;5114387;28;20805;-56
2022/09/14 03:43:50;;;;;;;2.10;0.40;;;;;;;15.34;97.73;95407.00;5114522;28;20432;-56
2022/09/14 03:46:20;;;;;;;0.50;0.50;;;;;;;15.24;99.85;95408.00;5114655;28;20427;-56
2022/09/14 03:48:50;;;;;;;0.40;0.30;;;;;;;14.89;92.58;95318.69;5114074;28;20485;-56
2022/09/14 03:51:19;;;;;;;0.60;0.40;;;;;;;14.51;95.17;95311.94;5114261;28;20777;-56
2022/09/14 03:53:47;;;;;;;0.40;0.30;;;;;;;14.97;97.14;95410.63;5114388;28;20419;-56
2022/09/14 03:56:18;;;;;;;0.40;0.30;;;;;;;14.94;95.28;95404.00;5114181;28;20421;-56
2022/09/14 03:58:47;;;;;;;0.40;0.20;;;;;;;14.72;97.88;95406.53;5114123;28;20501;-56
2022/09/14 04:01:18;;;;;;;0.40;0.30;;;;;;;14.58;98.95;95416.34;5114272;28;20835;-56
2022/09/14 04:03:46;;;;;;;0.50;0.40;;;;;;;13.87;100.00;95419.22;5113861;28;20434;-56
2022/09/14 04:06:17;;;;;;;0.53;0.53;;;;;;;13.81;100.00;95418.50;5113950;28;20967;-56
2022/09/14 04:08:46;;;;;;;0.47;0.30;;;;;;;14.36;100.00;95418.84;5114073;28;20439;-56
2022/09/14 04:11:17;;;;;;;0.50;0.30;;;;;;;14.53;100.00;95416.44;5113836;28;20422;-56
2022/09/14 04:13:47;;;;;;;0.50;0.50;;;;;;;14.26;100.00;95416.28;5113881;28;20832;-56
2022/09/14 04:16:16;;;;;;;0.60;0.30;;;;;;;14.51;100.00;95431.94;5113979;28;20785;-56
2022/09/14 04:18:45;;;;;;;0.40;0.30;;;;;;;14.16;100.00;95405.78;5113491;28;20505;-56
2022/09/14 04:21:15;;;;;;;0.60;0.47;;;;;;;14.27;100.00;95429.31;5112641;28;21078;-56
2022/09/14 04:23:45;;;;;;;0.40;0.30;;;;;;;14.28;100.00;95432.78;5113445;28;20952;-55
2022/09/14 04:26:34;;;;;;;0.50;0.30;;;;;;;14.32;100.00;95434.63;5113359;28;20439;-56
2022/09/14 04:29:03;;;;;;;0.50;0.30;;;;;;;14.58;100.00;95432.34;5113558;28;20837;-56
2022/09/14 04:31:32;;;;;;;0.43;0.30;;;;;;;14.78;99.72;95432.03;5113294;28;20461;-56
2022/09/14 04:34:00;;;;;;;0.40;0.20;;;;;;;14.81;100.00;95436.00;5113341;28;20446;-56
2022/09/14 04:36:29;;;;;;;0.40;0.30;;;;;;;14.92;100.00;95440.06;5113356;28;20424;-56
2022/09/14 04:39:01;;;;;;;0.50;0.43;;;;;;;14.66;100.00;95426.38;5113339;28;20463;-55
2022/09/14 04:41:31;;;;;;;0.50;0.33;;;;;;;14.90;100.00;95426.25;5112919;28;20435;-55
2022/09/14 04:44:00;;;;;;;0.40;0.30;;;;;;;15.04;100.00;95435.06;5113041;28;20929;-55
2022/09/14 04:46:33;;;;;;;0.40;0.30;;;;;;;15.11;98.46;95440.81;5113279;28;20438;-56
2022/09/14 04:49:02;;;;;;;0.40;0.20;;;;;;;15.31;100.00;95436.97;5112919;28;20484;-55
2022/09/14 04:51:32;;;;;;;0.50;0.30;;;;;;;15.40;98.36;95429.88;5113241;28;20423;-55
2022/09/14 04:54:05;;;;;;;0.87;0.30;;;;;;;15.10;96.07;95440.00;5112837;28;20432;-54
2022/09/14 04:56:36;;;;;;;0.43;0.30;;;;;;;15.08;100.00;95439.50;5112617;28;20435;-54
2022/09/14 04:59:05;;;;;;;0.40;0.20;;;;;;;15.63;100.00;95440.41;5112664;28;20463;-54
2022/09/14 05:01:36;;;;;;;0.60;0.30;;;;;;;15.40;93.78;95363.09;5112768;28;20428;-55
2022/09/14 05:04:05;;;;;;;0.40;0.20;;;;;;;15.77;88.70;95438.50;5112678;28;20480;-55
2022/09/14 05:06:36;;;;;;;0.40;0.20;;;;;;;15.84;92.22;95436.19;5111634;28;20439;-55
2022/09/14 05:09:08;;;;;;;0.40;0.30;;;;;;;15.75;86.38;95439.88;5112477;28;20432;-55
2022/09/14 05:11:36;;;;;;;0.50;0.33;;;;;;;14.95;95.00;95426.16;5112681;28;20423;-55
2022/09/14 05:14:05;;;;;;;0.50;0.30;;;;;;;14.89;100.00;95425.44;5112466;28;20861;-55
2022/09/14 05:16:35;;;;;;;0.50;0.50;;;;;;;14.75;100.00;95415.81;5112879;28;20435;-54
2022/09/14 05:19:06;;;;;;;0.50;0.33;;;;;;;14.82;100.00;95424.25;5112405;28;20474;-54
2022/09/14 05:21:36;;;;;;;1.73;1.63;;;;;;;13.95;100.00;95419.41;5112738;28;20794;-54
2022/09/14 05:24:11;;;;;;;0.60;0.60;;;;;;;13.47;100.00;95423.22;5112577;28;20439;-54
2022/09/14 05:26:39;;;;;;;0.60;0.43;;;;;;;13.18;100.00;95431.25;5112335;28;20465;-54
2022/09/14 05:29:07;;;;;;;1.50;0.63;;;;;;;13.60;100.00;95429.72;5112609;28;20924;-54
2022/09/14 05:31:36;;;;;;;0.97;0.87;;;;;;;14.35;100.00;95434.03;5112728;28;20778;-54
2022/09/14 05:34:05;;;;;;;0.60;0.50;;;;;;;14.12;100.00;95434.88;5112361;28;20427;-54
2022/09/14 05:36:33;;;;;;;0.60;0.40;;;;;;;14.30;100.00;95441.28;5112164;28;20951;-55
2022/09/14 05:39:01;;;;;;;0.73;0.73;;;;;;;13.76;100.00;95447.88;5112252;28;20941;-54
2022/09/14 05:41:31;;;;;;;0.83;0.70;;;;;;;14.22;100.00;95447.28;5112573;28;20449;-55
2022/09/14 05:43:59;;;;;;;0.70;0.70;;;;;;;14.61;100.00;95445.91;5112145;28;20433;-55
2022/09/14 05:46:28;;;;;;;1.00;0.90;;;;;;;14.89;100.00;95448.66;5111870;28;20432;-55
2022/09/14 05:48:56;;;;;;;0.50;0.40;;;;;;;15.55;100.00;95448.31;5112090;28;21022;-55
2022/09/14 05:51:25;;;;;;;0.67;0.60;;;;;;;15.73;100.00;95448.22;5112301;28;20446;-55
2022/09/14 05:53:55;;;;;;;0.77;0.77;;;;;;;15.56;100.00;95449.91;5112044;28;20431;-55
2022/09/14 05:56:26;;;;;;;0.83;0.70;;;;;;;15.21;99.74;95342.63;5111758;28;20436;-53
2022/09/14 05:58:57;;;;;;;0.63;0.57;;;;;;;16.17;98.61;95449.41;5112397;28;20451;-56
2022/09/14 06:01:27;;;;;;;0.63;0.63;;;;;;;17.31;89.80;95444.28;5111904;28;20486;-55
2022/09/14 06:03:57;;;;;;;0.40;0.20;;;;;;;17.90;80.08;95436.78;5111998;28;20433;-57
2022/09/14 06:06:25;;;;;;;0.50;0.40;;;;;;;18.13;75.03;95440.94;5112202;28;21058;-57
2022/09/14 06:08:55;;;;;;;0.80;0.50;;;;;;;18.69;72.74;95434.69;5112274;28;20845;-57
2022/09/14 06:11:25;;;;;;;0.40;0.20;;;;;;;19.29;67.13;95437.28;5112127;28;20427;-56
2022/09/14 06:13:55;;;;;;;0.60;0.60;;;;;;;19.37;65.41;95434.59;5111859;28;20926;-50
2022/09/14 06:16:25;;;;;;;1.13;0.40;;;;;;;19.52;63.02;95425.22;5111714;28;20450;-51
2022/09/14 06:18:55;;;;;;;0.70;0.37;;;;;;;19.68;60.09;95428.94;5112183;28;20428;-50
2022/09/14 06:21:28;;;;;;;0.67;0.40;;;;;;;19.83;58.44;95433.78;5112156;28;20482;-50
2022/09/14 06:23:56;;;;;;;0.40;0.30;;;;;;;20.28;56.79;95431.31;5112048;28;20450;-50
2022/09/14 06:26:25;;;;;;;0.53;0.47;;;;;;;20.68;57.21;95426.25;5112108;28;20950;-50
2022/09/14 06:28:55;;;;;;;0.70;0.70;;;;;;;20.93;52.14;95403.66;5112055;28;20456;-49
2022/09/14 06:31:24;;;;;;;1.60;0.50;;;;;;;20.65;54.27;95421.50;5111729;28;20428;-49
2022/09/14 06:33:53;;;;;;;0.60;0.60;;;;;;;20.03;57.45;95421.47;5111790;28;20423;-50
2022/09/14 06:36:22;;;;;;;0.40;0.33;;;;;;;20.76;56.51;95411.91;5111669;28;20431;-49
2022/09/14 06:38:52;;;;;;;0.40;0.30;;;;;;;21.40;51.77;95418.41;5111552;28;20432;-49
2022/09/14 06:41:21;;;;;;;0.63;0.47;;;;;;;21.82;50.32;95420.91;5111395;28;21020;-49
2022/09/14 06:43:51;;;;;;;0.50;0.30;;;;;;;21.77;47.89;95427.31;5111636;28;20431;-49
2022/09/14 06:46:22;;;;;;;0.40;0.40;;;;;;;21.67;46.87;95422.38;5114970;28;20783;-48
2022/09/14 06:48:52;;;;;;;1.00;0.97;;;;;;;22.10;46.91;95421.81;5115452;28;20833;-49
2022/09/14 06:51:23;;;;;;;2.00;0.60;;;;;;;22.51;47.30;95415.34;5114988;28;20431;-48
2022/09/14 06:53:52;;;;;;;0.77;0.63;;;;;;;23.83;43.14;95419.28;5115208;27;20943;-48
2022/09/14 06:56:21;;;;;;;0.70;0.67;;;;;;;23.40;41.95;95421.31;5114641;28;20423;-49
2022/09/14 06:58:51;;;;;;;1.47;0.50;;;;;;;23.36;43.33;95426.63;5115113;28;20427;-49
2022/09/14 07:01:21;;;;;;;0.40;0.30;;;;;;;23.32;41.61;95350.00;5115080;28;20471;-49
2022/09/14 07:03:51;;;;;;;2.70;1.77;;;;;;;24.55;41.27;95412.44;5114962;28;20420;-49
2022/09/14 07:06:21;;;;;;;0.50;0.30;;;;;;;24.32;39.48;95416.97;5114811;28;20427;-50
2022/09/14 07:08:50;;;;;;;0.70;0.40;;;;;;;23.79;40.34;95410.31;5114875;28;20431;-52
2022/09/14 07:11:20;;;;;;;0.40;0.30;;;;;;;23.43;40.76;95409.81;5114660;28;20428;-50
2022/09/14 07:13:49;;;;;;;0.60;0.50;;;;;;;23.55;40.74;95386.16;5115164;27;20423;-51
2022/09/14 07:16:17;;;;;;;0.50;0.30;;;;;;;24.46;39.14;95405.66;5115070;28;20797;-50
2022/09/14 07:18:47;;;;;;;0.50;0.40;;;;;;;24.37;39.31;95335.41;5114717;28;20428;-50
2022/09/14 07:21:18;;;;;;;1.17;1.13;;;;;;;23.62;40.77;95386.31;5114936;28;20471;-51
2022/09/14 07:23:47;;;;;;;0.50;0.43;;;;;;;24.07;41.70;95412.09;5114783;28;20423;-50
2022/09/14 07:26:18;;;;;;;0.60;0.40;;;;;;;24.56;40.27;95405.91;5114517;28;20431;-50
2022/09/14 07:28:49;;;;;;;0.50;0.40;;;;;;;24.66;39.40;95418.09;5114898;28;20427;-50
2022/09/14 07:31:21;;;;;;;0.60;0.47;;;;;;;24.76;39.48;95409.41;5114811;28;20768;-49
2022/09/14 07:33:53;;;;;;;0.50;0.37;;;;;;;25.33;38.50;95397.72;5114506;28;20455;-49
2022/09/14 07:36:23;;;;;;;0.50;0.30;;;;;;;25.45;37.45;95397.56;5114470;28;20439;-49
2022/09/14 07:38:52;;;;;;;0.73;0.63;;;;;;;24.83;38.36;95401.44;5114750;28;20429;-49
2022/09/14 07:41:21;;;;;;;0.50;0.40;;;;;;;24.85;38.56;95399.13;5114183;28;20561;-50
2022/09/14 07:43:50;;;;;;;0.50;0.43;;;;;;;24.59;39.13;95369.16;5114489;28;20427;-50
2022/09/14 07:46:19;;;;;;;0.40;0.30;;;;;;;25.16;36.99;95377.28;5114748;28;20432;-50
2022/09/14 07:48:48;;;;;;;0.40;0.40;;;;;;;25.54;37.02;95376.41;5114245;28;20434;-51
2022/09/14 07:51:18;;;;;;;0.50;0.40;;;;;;;26.05;35.62;95376.03;5114050;28;20432;-50
2022/09/14 07:53:47;;;;;;;0.67;0.67;;;;;;;25.41;36.23;95377.69;5114409;28;20777;-50
2022/09/14 07:56:15;;;;;;;0.60;0.60;;;;;;;25.15;37.41;95386.53;5114285;28;20913;-50
2022/09/14 07:58:44;;;;;;;0.60;0.50;;;;;;;25.36;36.77;95379.91;5114093;28;20419;-50
2022/09/14 08:01:14;;;;;;;0.40;0.30;;;;;;;26.13;36.26;95375.81;5114133;28;20494;-50
2022/09/14 08:03:44;;;;;;;0.40;0.33;;;;;;;27.31;33.68;95376.88;5114209;28;20451;-50
2022/09/14 08:06:14;;;;;;;0.40;0.30;;;;;;;27.29;34.21;95381.91;5114199;28;20423;-50
2022/09/14 08:08:46;;;;;;;0.40;0.30;;;;;;;27.98;33.57;95368.50;5114393;28;20834;-50
2022/09/14 08:11:16;;;;;;;0.50;0.40;;;;;;;28.25;32.35;95372.59;5113693;28;20969;-50
2022/09/14 08:13:48;;;;;;;0.53;0.50;;;;;;;28.11;33.34;95372.50;5114132;28;20425;-50
2022/09/14 08:16:18;;;;;;;0.40;0.40;;;;;;;28.72;32.10;95369.75;5113574;28;20431;-49
2022/09/14 08:18:47;;;;;;;1.10;0.80;;;;;;;28.16;31.77;95378.38;5113552;28;20927;-48
2022/09/14 08:21:17;;;;;;;0.40;0.30;;;;;;;28.16;31.77;95377.59;5113595;28;20486;-48
2022/09/14 08:23:47;;;;;;;0.50;0.40;;;;;;;28.24;33.43;95373.75;5113516;28;20428;-49
2022/09/14 08:26:16;;;;;;;1.73;0.63;;;;;;;28.21;31.08;95383.47;5113473;28;20435;-50
2022/09/14 08:28:45;;;;;;;0.40;0.33;;;;;;;28.69;31.04;95375.97;5113449;28;20424;-49
2022/09/14 08:31:16;;;;;;;0.47;0.40;;;;;;;28.97;30.58;95375.28;5113104;27;20927;-61
2022/09/14 08:33:46;;;;;;;0.60;0.60;;;;;;;28.57;30.57;95364.56;5113721;28;20528;-61
2022/09/14 08:36:16;;;;;;;2.00;0.40;;;;;;;28.51;30.38;95363.41;5113236;28;20440;-60
2022/09/14 08:38:44;;;;;;;0.80;0.37;;;;;;;28.37;31.74;95353.19;5113346;28;20448;-60
2022/09/14 08:41:27;;;;;;;0.50;0.40;;;;;;;29.10;31.02;95346.47;5113495;28;20515;-59
2022/09/14 08:43:59;;;;;;;0.40;0.40;;;;;;;29.60;30.57;95350.06;5113369;28;20433;-60
2022/09/14 08:46:31;;;;;;;0.40;0.33;;;;;;;29.62;29.33;95336.81;5113667;28;20449;-59
2022/09/14 08:49:01;;;;;;;0.83;0.83;;;;;;;29.44;30.22;95345.00;5113349;28;20433;-60
2022/09/14 08:51:30;;;;;;;0.40;0.40;;;;;;;29.22;31.57;95345.38;5112854;28;20436;-60
2022/09/14 08:53:59;;;;;;;0.40;0.30;;;;;;;30.29;29.73;95335.97;5113112;28;20899;-60
2022/09/14 08:56:32;;;;;;;0.40;0.33;;;;;;;29.86;28.20;95338.00;5112395;28;20445;-60
2022/09/14 08:59:37;;;;;;;0.50;0.40;;;;;;;29.86;29.31;95336.06;5112510;28;20437;-60
2022/09/14 09:02:32;;;;;;;0.40;0.40;;;;;;;28.46;30.11;95334.56;5112663;28;20486;-60
2022/09/14 09:05:15;;;;;;;0.60;0.40;;;;;;;29.42;27.95;95324.72;5112629;28;20449;-61
2022/09/14 09:07:53;;;;;;;0.53;0.53;;;;;;;29.99;27.58;95298.16;5112670;28;20930;-60
2022/09/14 09:10:24;;;;;;;0.40;0.33;;;;;;;30.65;27.34;95326.50;5112886;28;20931;-60
2022/09/14 09:12:57;;;;;;;0.50;0.40;;;;;;;30.33;26.89;95312.16;5112647;28;20918;-60
2022/09/14 09:15:29;;;;;;;0.40;0.30;;;;;;;31.06;26.50;95332.19;5112847;28;20438;-60
2022/09/14 09:18:01;;;;;;;0.47;0.40;;;;;;;30.90;27.24;95321.72;5112556;28;20431;-60
2022/09/14 09:20:32;;;;;;;0.40;0.30;;;;;;;31.50;26.60;95320.59;5112934;28;20938;-60
2022/09/14 09:23:11;;;;;;;0.90;0.40;;;;;;;30.52;29.20;95282.41;5112631;28;20495;-60
2022/09/14 09:26:00;;;;;;;0.40;0.30;;;;;;;31.87;27.22;95320.66;5112614;28;20433;-60
2022/09/14 09:28:30;;;;;;;0.50;0.30;;;;;;;32.63;26.55;95315.59;5112691;28;20433;-52
2022/09/14 09:31:03;;;;;;;0.40;0.30;;;;;;;32.54;26.42;95317.25;5112280;28;20435;-52
2022/09/14 09:33:32;;;;;;;0.70;0.40;;;;;;;31.64;28.21;95313.03;5112259;28;20999;-52
2022/09/14 09:36:01;;;;;;;0.40;0.40;;;;;;;31.71;28.65;95306.69;5112542;28;20428;-52
2022/09/14 09:38:29;;;;;;;0.60;0.50;;;;;;;30.89;29.00;95306.44;5112730;28;20425;-53
2022/09/14 09:41:02;;;;;;;0.30;0.30;;;;;;;31.40;27.70;95309.28;5112448;28;20428;-52
2022/09/14 09:43:32;;;;;;;0.97;0.40;;;;;;;31.07;27.78;95309.88;5112519;28;20440;-53
2022/09/14 09:46:17;;;;;;;5.33;0.43;;;;;;;31.52;27.89;95315.50;5112326;28;20434;-52
2022/09/14 09:48:47;;;;;;;0.40;0.37;;;;;;;31.83;26.24;95314.41;5112018;28;20490;-53
2022/09/14 09:51:18;;;;;;;0.40;0.30;;;;;;;32.00;26.96;95240.25;5112221;28;20440;-52
2022/09/14 09:53:53;;;;;;;0.40;0.30;;;;;;;33.09;27.36;95306.00;5112007;28;20480;-65
2022/09/14 09:56:24;;;;;;;0.70;0.50;;;;;;;32.85;27.25;95296.09;5111843;28;20437;-64
2022/09/14 09:58:54;;;;;;;0.37;0.30;;;;;;;32.29;27.08;95300.28;5112360;28;20820;-65
2022/09/14 10:01:27;;;;;;;0.40;0.40;;;;;;;31.96;26.83;95297.06;5111848;28;20430;-65
2022/09/14 10:04:18;;;;;;;0.80;0.50;;;;;;;32.41;25.40;95292.28;5112231;28;20431;-65
2022/09/14 10:06:48;;;;;;;1.63;0.70;;;;;;;32.52;25.52;95297.69;5106699;28;20445;-64
2022/09/14 10:09:20;;;;;;;0.47;0.47;;;;;;;32.67;24.23;95290.84;5112058;28;20435;-64
2022/09/14 10:11:57;;;;;;;0.40;0.30;;;;;;;32.81;23.41;95292.63;5111886;28;20438;-65
2022/09/14 10:14:31;;;;;;;0.40;0.40;;;;;;;32.24;24.20;95285.06;5111825;28;20434;-67
2022/09/14 10:17:07;;;;;;;0.90;0.90;;;;;;;31.94;24.53;95277.50;5111823;28;20970;-66
2022/09/14 10:19:36;;;;;;;0.30;0.30;;;;;;;31.76;25.61;95274.16;5112762;28;20445;-66
2022/09/14 10:22:17;;;;;;;0.50;0.50;;;;;;;33.18;23.77;95278.78;5116181;28;20480;-66
2022/09/14 10:24:55;;;;;;;0.40;0.40;;;;;;;32.77;25.12;95287.19;5115791;28;20425;-65
2022/09/14 10:27:38;;;;;;;0.30;0.30;;;;;;;32.08;24.93;95287.56;5115886;27;20462;-66
2022/09/14 10:30:13;;;;;;;0.40;0.30;;;;;;;33.50;24.20;95270.03;5115702;28;20953;-66
2022/09/14 10:32:45;;;;;;;0.40;0.40;;;;;;;34.72;24.20;95270.97;5115985;28;20931;-67
2022/09/14 10:35:16;;;;;;;0.37;0.30;;;;;;;33.68;23.16;95265.81;5115928;28;20418;-66
2022/09/14 10:37:53;;;;;;;0.30;0.30;;;;;;;33.83;24.75;95261.63;5115834;28;20430;-58
2022/09/14 10:40:30;;;;;;;0.40;0.40;;;;;;;34.28;23.82;95259.25;5115497;28;20432;-58
2022/09/14 10:43:10;;;;;;;0.40;0.30;;;;;;;34.02;23.71;95256.59;5115237;28;20561;-57
2022/09/14 10:45:44;;;;;;;0.50;0.40;;;;;;;34.12;23.85;95252.88;5115887;28;20431;-57
2022/09/14 10:48:50;;;;;;;0.63;0.47;;;;;;;33.81;23.83;95253.03;5115326;28;20434;-58
2022/09/14 10:51:40;;;;;;;0.40;0.37;;;;;;;33.95;22.84;95249.25;5101903;28;20495;-58
2022/09/14 10:54:26;;;;;;;0.47;0.30;;;;;;;35.18;21.46;95231.41;5115119;28;20429;-57
2022/09/14 10:57:05;;;;;;;0.50;0.40;;;;;;;35.55;22.81;95239.94;5114836;28;20476;-58
2022/09/14 10:59:43;;;;;;;1.33;1.33;;;;;;;35.35;22.08;95239.25;5115551;28;20430;-57
2022/09/14 11:02:46;;;;;;;0.50;0.50;;;;;;;33.94;24.49;95233.16;5114967;28;21000;-57
2022/09/14 11:05:21;;;;;;;0.30;0.30;;;;;;;34.19;24.26;95228.00;5080952;28;20205;-58
2022/09/14 11:07:58;;;;;;;0.50;0.40;;;;;;;33.95;23.45;95229.22;5115019;28;20427;-57
2022/09/14 11:10:36;;;;;;;5.93;0.50;;;;;;;33.36;24.07;95227.09;5114954;28;20195;-57
2022/09/14 11:13:31;;;;;;;0.97;0.40;;;;;;;32.65;23.52;95232.84;5114706;28;20447;-57
2022/09/14 11:16:09;;;;;;;0.30;0.27;;;;;;;33.64;23.53;95212.91;5115004;28;20446;-58
2022/09/14 11:18:50;;;;;;;0.50;0.50;;;;;;;35.62;22.00;95205.91;5114630;28;20427;-58
2022/09/14 11:21:25;;;;;;;0.30;0.20;;;;;;;36.02;20.62;95214.72;5114790;28;20435;-56
2022/09/14 11:23:59;;;;;;;1.57;0.50;;;;;;;35.40;22.38;95210.38;5114836;28;20232;-58
2022/09/14 11:26:30;;;;;;;0.50;0.40;;;;;;;35.33;23.02;95203.06;5114308;28;20193;-58
2022/09/14 11:29:07;;;;;;;0.40;0.30;;;;;;;35.64;22.22;95212.56;5114788;27;20558;-58
2022/09/14 11:31:49;;;;;;;0.40;0.37;;;;;;;36.46;20.39;95210.34;5114154;28;20196;-58
2022/09/14 11:34:43;;;;;;;0.40;0.30;;;;;;;37.41;20.01;95188.88;5114120;28;20196;-57
2022/09/14 11:37:14;;;;;;;0.53;0.30;;;;;;;36.24;19.86;95197.13;5114564;28;20569;-58
2022/09/14 11:39:47;;;;;;;0.40;0.30;;;;;;;35.82;21.52;95134.84;5114312;28;20194;-58
2022/09/14 11:42:21;;;;;;;0.40;0.30;;;;;;;35.93;21.83;95193.25;5114244;28;20657;-58
2022/09/14 11:44:55;;;;;;;0.77;0.40;;;;;;;35.97;21.80;95185.66;5114672;28;20655;-58
2022/09/14 11:47:25;;;;;;;0.40;0.37;;;;;;;35.69;22.13;95186.44;5114298;28;20190;-58
2022/09/14 11:50:01;;;;;;;0.30;0.30;;;;;;;35.06;22.29;95175.00;5114169;28;20190;-58
2022/09/14 11:52:31;;;;;;;0.30;0.30;;;;;;;34.76;22.06;95178.06;5114366;28;20198;-58
2022/09/14 11:55:01;;;;;;;1.43;0.50;;;;;;;34.88;21.80;95175.41;5114096;28;20192;-58
2022/09/14 11:57:32;;;;;;;0.50;0.40;;;;;;;33.77;23.34;95172.59;5114116;28;20236;-58